Time;durP1;ratioP1;P1;durP2;ratioP2;P2;SDS_P1;SDS_P2;PMS_P1;PMS_P2;Temp;Humidity;BMP_temperature;BMP_pressure;BME280_temperature;BME280_humidity;BME280_pressure;Samples;Min_cycle;Max_cycle;Signal;HPM_P1;HPM_P2
2021/09/08 00:00:35;;;;;;;9.73;7.90;;;20.50;95.60;;;;;;5008113;28;20251;-69
2021/09/08 00:03:01;;;;;;;10.47;8.43;;;20.50;95.60;;;;;;4988007;28;20236;-70
2021/09/08 00:05:27;;;;;;;12.27;8.07;;;20.50;95.60;;;;;;4989488;28;20448;-69
2021/09/08 00:07:53;;;;;;;9.90;7.50;;;20.50;95.70;;;;;;4987096;28;20221;-70
2021/09/08 00:10:18;;;;;;;10.90;7.97;;;20.50;95.70;;;;;;4989963;28;20466;-70
2021/09/08 00:12:44;;;;;;;10.47;7.30;;;20.50;95.70;;;;;;4988677;28;20320;-69
2021/09/08 00:15:11;;;;;;;8.70;6.80;;;20.50;95.70;;;;;;5004370;28;20232;-69
2021/09/08 00:17:38;;;;;;;8.87;7.03;;;20.40;95.70;;;;;;5006063;28;20460;-69
2021/09/08 00:20:06;;;;;;;11.57;7.27;;;20.40;95.80;;;;;;5004125;28;20465;-70
2021/09/08 00:22:31;;;;;;;8.40;7.00;;;20.30;95.70;;;;;;5000248;28;20459;-69
2021/09/08 00:24:57;;;;;;;11.27;7.83;;;20.30;95.90;;;;;;4993938;28;20467;-70
2021/09/08 00:27:23;;;;;;;14.00;7.80;;;20.30;95.90;;;;;;5005974;28;21163;-69
2021/09/08 00:29:49;;;;;;;11.47;7.47;;;20.30;95.90;;;;;;4989829;28;20221;-69
2021/09/08 00:32:15;;;;;;;9.17;7.07;;;20.20;95.90;;;;;;4987153;28;20221;-69
2021/09/08 00:34:41;;;;;;;10.77;7.37;;;20.20;95.90;;;;;;4989882;28;20464;-69
2021/09/08 00:37:08;;;;;;;8.57;7.60;;;20.20;95.90;;;;;;5021724;28;20634;-69
2021/09/08 00:39:35;;;;;;;7.77;6.83;;;20.20;96.10;;;;;;4992428;28;20495;-70
2021/09/08 00:42:13;;;;;;;8.20;6.77;;;20.20;96.00;;;;;;4986684;28;20464;-69
2021/09/08 00:44:42;;;;;;;10.23;7.30;;;20.20;96.00;;;;;;5005842;28;20460;-69
2021/09/08 00:47:15;;;;;;;7.90;6.47;;;20.10;96.40;;;;;;5003736;28;20469;-69
2021/09/08 00:49:46;;;;;;;15.83;7.83;;;20.10;96.10;;;;;;4991444;28;20460;-69
2021/09/08 00:52:13;;;;;;;8.83;6.53;;;20.10;96.10;;;;;;5002804;28;20488;-69
2021/09/08 00:54:40;;;;;;;9.03;6.97;;;20.00;96.20;;;;;;4989756;28;20480;-70
2021/09/08 00:57:10;;;;;;;9.30;7.50;;;20.00;96.20;;;;;;4996095;28;20514;-70
2021/09/08 00:59:41;;;;;;;10.07;7.47;;;20.00;96.30;;;;;;4990404;28;20471;-70
2021/09/08 01:02:06;;;;;;;9.90;7.27;;;20.00;96.30;;;;;;4983948;28;20469;-70
2021/09/08 01:04:33;;;;;;;10.70;7.80;;;20.00;96.30;;;;;;5000815;28;20475;-70
2021/09/08 01:07:00;;;;;;;11.30;8.10;;;19.90;96.20;;;;;;4994627;28;21022;-70
2021/09/08 01:09:27;;;;;;;11.90;7.40;;;19.90;96.20;;;;;;4998168;28;20456;-70
2021/09/08 01:11:54;;;;;;;9.90;7.40;;;19.90;96.40;;;;;;4980838;28;20495;-70
2021/09/08 01:14:20;;;;;;;10.93;8.20;;;19.80;96.30;;;;;;4987773;28;20503;-69
2021/09/08 01:16:55;;;;;;;10.03;7.20;;;19.80;96.40;;;;;;5003748;28;20455;-70
2021/09/08 01:19:22;;;;;;;9.30;7.27;;;19.80;96.40;;;;;;4990323;28;20452;-69
2021/09/08 01:21:48;;;;;;;12.90;9.43;;;19.70;96.40;;;;;;5013537;28;20838;-70
2021/09/08 01:24:14;;;;;;;10.00;7.87;;;19.70;96.40;;;;;;4988231;28;20459;-70
2021/09/08 01:26:42;;;;;;;14.10;7.73;;;19.70;96.60;;;;;;5004046;28;20567;-69
2021/09/08 01:29:09;;;;;;;11.30;8.10;;;19.70;96.70;;;;;;4998962;28;20470;-69
2021/09/08 01:31:35;;;;;;;8.00;6.40;;;19.60;96.60;;;;;;4990110;28;20478;-70
2021/09/08 01:34:01;;;;;;;10.70;7.33;;;19.60;96.70;;;;;;4987861;28;20476;-70
2021/09/08 01:36:27;;;;;;;10.03;7.33;;;19.60;96.70;;;;;;4992418;28;20452;-69
2021/09/08 01:38:52;;;;;;;10.17;7.87;;;19.60;96.70;;;;;;4992239;28;20304;-69
2021/09/08 01:41:18;;;;;;;10.07;8.20;;;19.50;96.70;;;;;;5000260;28;20573;-70
2021/09/08 01:43:47;;;;;;;12.47;7.93;;;19.50;96.70;;;;;;4992515;28;20259;-69
2021/09/08 01:46:23;;;;;;;10.07;7.77;;;19.50;96.70;;;;;;5006241;28;20504;-69
2021/09/08 01:48:49;;;;;;;9.90;7.27;;;19.50;96.70;;;;;;4991047;28;20863;-70
2021/09/08 01:51:17;;;;;;;9.90;7.53;;;19.50;96.90;;;;;;4987032;28;20512;-69
2021/09/08 01:53:43;;;;;;;9.63;7.50;;;19.50;96.90;;;;;;5004474;28;20471;-69
2021/09/08 01:56:09;;;;;;;11.77;8.30;;;19.40;97.00;;;;;;4983123;28;20461;-69
2021/09/08 01:58:36;;;;;;;12.53;8.27;;;19.40;97.10;;;;;;4992323;28;20463;-70
2021/09/08 02:01:03;;;;;;;13.30;8.23;;;19.30;97.40;;;;;;5006133;28;20466;-70
2021/09/08 02:03:28;;;;;;;8.20;6.73;;;19.30;97.00;;;;;;5008567;28;20460;-69
2021/09/08 02:05:54;;;;;;;10.17;7.50;;;19.30;97.10;;;;;;5007382;28;20907;-70
2021/09/08 02:08:20;;;;;;;9.83;7.50;;;19.30;97.00;;;;;;4992235;28;20683;-70
2021/09/08 02:10:45;;;;;;;9.80;6.90;;;19.30;97.00;;;;;;5008328;28;20623;-69
2021/09/08 02:13:11;;;;;;;10.47;7.43;;;19.20;97.00;;;;;;5005151;28;20225;-69
2021/09/08 02:15:37;;;;;;;10.20;7.43;;;19.20;97.20;;;;;;4990988;28;20244;-69
2021/09/08 02:18:03;;;;;;;10.50;7.90;;;19.20;97.10;;;;;;4998607;28;20282;-69
2021/09/08 02:20:28;;;;;;;11.30;8.40;;;19.20;97.10;;;;;;4996814;28;20272;-69
2021/09/08 02:22:54;;;;;;;14.87;8.40;;;19.20;97.10;;;;;;4998134;28;20607;-69
2021/09/08 02:25:20;;;;;;;10.30;7.17;;;19.20;97.30;;;;;;5011602;28;20223;-69
2021/09/08 02:27:45;;;;;;;9.03;7.23;;;19.10;97.20;;;;;;4998843;28;20710;-70
2021/09/08 02:30:12;;;;;;;9.47;7.07;;;19.10;97.30;;;;;;5006230;28;20225;-69
2021/09/08 02:32:37;;;;;;;10.13;7.23;;;19.10;97.20;;;;;;5027279;28;20315;-69
2021/09/08 02:35:04;;;;;;;10.80;7.33;;;19.10;97.30;;;;;;5009346;28;20554;-69
2021/09/08 02:37:30;;;;;;;12.73;8.87;;;19.10;97.20;;;;;;4993353;28;20682;-70
2021/09/08 02:39:55;;;;;;;9.90;7.80;;;19.00;97.20;;;;;;5005436;28;20460;-70
2021/09/08 02:42:21;;;;;;;11.73;8.30;;;19.00;97.30;;;;;;4991071;28;20669;-70
2021/09/08 02:44:47;;;;;;;9.87;7.20;;;19.00;97.40;;;;;;4991060;28;20300;-69
2021/09/08 02:47:13;;;;;;;11.23;8.70;;;19.00;97.40;;;;;;4989596;28;20297;-69
2021/09/08 02:49:39;;;;;;;11.47;8.23;;;19.00;97.40;;;;;;4990683;28;20251;-70
2021/09/08 02:52:04;;;;;;;9.60;7.53;;;19.00;97.40;;;;;;5005065;28;20229;-70
2021/09/08 02:54:30;;;;;;;9.30;8.30;;;18.90;97.60;;;;;;5008981;28;20464;-70
2021/09/08 02:56:56;;;;;;;14.67;8.13;;;18.80;97.60;;;;;;4992758;28;20215;-70
2021/09/08 02:59:21;;;;;;;10.43;7.40;;;18.80;97.70;;;;;;4991439;28;20630;-69
2021/09/08 03:01:47;;;;;;;12.77;7.73;;;18.80;97.70;;;;;;5007108;28;20214;-70
2021/09/08 03:04:13;;;;;;;10.50;7.90;;;18.80;97.60;;;;;;4985894;28;20258;-70
2021/09/08 03:06:38;;;;;;;11.90;8.53;;;18.80;97.60;;;;;;5005703;28;20312;-70
2021/09/08 03:09:04;;;;;;;10.63;7.90;;;18.80;97.60;;;;;;4989423;28;20221;-69
2021/09/08 03:11:30;;;;;;;12.60;8.37;;;18.80;97.60;;;;;;5002004;28;20295;-70
2021/09/08 03:13:56;;;;;;;10.00;7.50;;;18.80;97.70;;;;;;4991568;28;20572;-69
2021/09/08 03:16:22;;;;;;;9.20;7.40;;;18.80;97.70;;;;;;4990855;28;20768;-69
2021/09/08 03:18:47;;;;;;;9.17;7.47;;;18.70;97.70;;;;;;5007274;28;20464;-69
2021/09/08 03:21:13;;;;;;;14.17;8.37;;;18.70;97.60;;;;;;4985342;28;20240;-69
2021/09/08 03:23:39;;;;;;;10.97;8.40;;;18.70;97.70;;;;;;5010388;28;20216;-69
2021/09/08 03:26:05;;;;;;;11.20;8.33;;;18.70;97.70;;;;;;5024980;28;20220;-70
2021/09/08 03:28:30;;;;;;;11.20;7.60;;;18.70;97.80;;;;;;5016885;28;20641;-69
2021/09/08 03:30:56;;;;;;;12.03;7.77;;;18.60;97.70;;;;;;5004915;28;20220;-69
2021/09/08 03:33:21;;;;;;;11.43;8.03;;;18.60;97.70;;;;;;4988939;28;20222;-69
2021/09/08 03:35:48;;;;;;;11.60;9.03;;;18.60;97.70;;;;;;4990595;28;20240;-68
2021/09/08 03:38:13;;;;;;;10.83;7.90;;;18.60;97.80;;;;;;4988165;28;20234;-69
2021/09/08 03:40:39;;;;;;;10.43;7.47;;;18.60;97.90;;;;;;5004891;28;20456;-70
2021/09/08 03:43:05;;;;;;;10.43;7.53;;;18.60;97.80;;;;;;4982034;28;20285;-69
2021/09/08 03:45:31;;;;;;;12.53;8.23;;;18.60;97.90;;;;;;4989369;28;20705;-69
2021/09/08 03:47:56;;;;;;;9.87;7.33;;;18.50;97.70;;;;;;4983856;28;20647;-69
2021/09/08 03:50:22;;;;;;;8.87;7.37;;;18.50;97.80;;;;;;4990050;28;20244;-69
2021/09/08 03:52:50;;;;;;;10.40;7.93;;;18.50;97.90;;;;;;4988988;28;20222;-69
2021/09/08 03:55:15;;;;;;;12.27;7.47;;;18.50;97.90;;;;;;5006050;28;20242;-69
2021/09/08 03:57:41;;;;;;;10.27;7.73;;;18.50;97.90;;;;;;5005476;28;20455;-69
2021/09/08 04:00:08;;;;;;;10.93;7.67;;;18.40;97.80;;;;;;5004832;28;20248;-70
2021/09/08 04:02:34;;;;;;;11.53;8.57;;;18.40;97.90;;;;;;5006023;28;20236;-69
2021/09/08 04:05:01;;;;;;;14.43;9.73;;;18.40;97.90;;;;;;5005806;28;20573;-70
2021/09/08 04:07:28;;;;;;;17.87;9.10;;;18.40;97.90;;;;;;4989983;28;20464;-69
2021/09/08 04:09:54;;;;;;;11.30;7.70;;;18.40;98.10;;;;;;5004684;28;21007;-68
2021/09/08 04:12:20;;;;;;;16.53;9.47;;;18.40;98.00;;;;;;4988167;28;20659;-69
2021/09/08 04:14:46;;;;;;;13.03;8.30;;;18.30;97.90;;;;;;4989911;28;20217;-70
2021/09/08 04:17:12;;;;;;;10.93;8.10;;;18.30;98.00;;;;;;4987454;28;20283;-69
2021/09/08 04:19:38;;;;;;;9.60;7.40;;;18.30;98.10;;;;;;5006101;28;20260;-69
2021/09/08 04:22:04;;;;;;;12.67;8.90;;;18.30;98.10;;;;;;5003984;28;20279;-69
2021/09/08 04:24:29;;;;;;;16.07;9.83;;;18.20;98.20;;;;;;5006005;28;20463;-70
2021/09/08 04:26:55;;;;;;;10.77;7.90;;;18.20;98.20;;;;;;5004368;28;20476;-69
2021/09/08 04:29:21;;;;;;;11.97;8.10;;;18.20;98.10;;;;;;4989869;28;20221;-69
2021/09/08 04:31:47;;;;;;;11.60;8.87;;;18.20;98.20;;;;;;4988284;28;20271;-70
2021/09/08 04:34:13;;;;;;;11.17;8.30;;;18.20;98.20;;;;;;4987915;28;20365;-70
2021/09/08 04:36:38;;;;;;;11.63;8.30;;;18.20;98.20;;;;;;5020166;28;20223;-69
2021/09/08 04:39:04;;;;;;;14.33;8.87;;;18.20;98.20;;;;;;5011113;28;20228;-70
2021/09/08 04:41:30;;;;;;;10.17;8.57;;;18.10;98.20;;;;;;5003518;28;20227;-70
2021/09/08 04:43:56;;;;;;;12.03;8.60;;;18.10;98.30;;;;;;5005125;28;20228;-70
2021/09/08 04:46:22;;;;;;;11.63;9.13;;;18.10;98.30;;;;;;4988135;28;20487;-69
2021/09/08 04:48:48;;;;;;;11.60;8.73;;;18.00;98.30;;;;;;4989759;28;20650;-69
2021/09/08 04:51:13;;;;;;;12.23;8.47;;;18.10;98.30;;;;;;4986544;28;20228;-70
2021/09/08 04:53:39;;;;;;;13.87;9.67;;;18.00;98.40;;;;;;5008410;28;20468;-69
2021/09/08 04:56:05;;;;;;;15.20;9.70;;;18.00;98.30;;;;;;5000542;28;20311;-68
2021/09/08 04:58:30;;;;;;;13.13;8.97;;;18.00;98.40;;;;;;5011871;28;20254;-70
2021/09/08 05:00:56;;;;;;;13.30;10.30;;;18.00;98.40;;;;;;4985757;28;20222;-68
2021/09/08 05:03:22;;;;;;;13.17;9.80;;;17.90;98.50;;;;;;4992930;28;20228;-69
2021/09/08 05:05:47;;;;;;;13.23;9.20;;;17.90;98.40;;;;;;4990200;28;20283;-69
2021/09/08 05:08:13;;;;;;;14.70;10.50;;;17.90;98.90;;;;;;4971515;28;20244;-69
2021/09/08 05:10:39;;;;;;;10.47;9.03;;;17.90;98.50;;;;;;5004658;28;20221;-69
2021/09/08 05:13:05;;;;;;;12.60;8.33;;;17.90;98.50;;;;;;5005568;28;21042;-70
2021/09/08 05:15:31;;;;;;;14.43;9.47;;;17.90;98.50;;;;;;4989896;28;20225;-69
2021/09/08 05:17:56;;;;;;;12.83;9.43;;;17.90;98.50;;;;;;5002026;28;20224;-70
2021/09/08 05:20:22;;;;;;;12.33;9.07;;;17.90;98.50;;;;;;4986702;28;20221;-69
2021/09/08 05:22:47;;;;;;;15.67;9.27;;;17.90;98.60;;;;;;5000948;28;20227;-69
2021/09/08 05:25:13;;;;;;;13.30;9.33;;;17.80;98.60;;;;;;4999101;28;20229;-69
2021/09/08 05:27:39;;;;;;;13.20;9.20;;;17.80;98.60;;;;;;4999066;28;20806;-69
2021/09/08 05:30:05;;;;;;;12.67;8.37;;;17.80;98.70;;;;;;4979461;28;20229;-69
2021/09/08 05:32:31;;;;;;;13.00;9.07;;;17.80;98.80;;;;;;4988620;28;20221;-69
2021/09/08 05:34:57;;;;;;;13.43;10.17;;;17.70;98.80;;;;;;4989837;28;20583;-69
2021/09/08 05:37:23;;;;;;;13.00;9.30;;;17.70;99.00;;;;;;5014962;28;20224;-69
2021/09/08 05:39:49;;;;;;;14.20;8.90;;;17.70;98.90;;;;;;5008630;28;20758;-69
2021/09/08 05:42:15;;;;;;;11.73;8.70;;;17.70;99.40;;;;;;5007040;28;20624;-69
2021/09/08 05:44:41;;;;;;;15.50;9.73;;;17.70;98.90;;;;;;4992642;28;20217;-69
2021/09/08 05:47:06;;;;;;;10.63;8.90;;;17.70;99.00;;;;;;5004734;28;20316;-69
2021/09/08 05:49:32;;;;;;;16.60;8.40;;;17.70;98.90;;;;;;4992966;28;20237;-69
2021/09/08 05:51:58;;;;;;;10.17;7.87;;;17.70;99.00;;;;;;5006212;28;20213;-70
2021/09/08 05:54:24;;;;;;;15.97;8.67;;;17.70;99.10;;;;;;4992171;28;20213;-69
2021/09/08 05:56:49;;;;;;;12.60;8.23;;;17.70;99.10;;;;;;5010656;28;20221;-68
2021/09/08 05:59:15;;;;;;;14.57;8.70;;;17.80;99.20;;;;;;5007055;28;20217;-69
2021/09/08 06:01:41;;;;;;;13.70;9.53;;;17.70;99.10;;;;;;5007762;28;20214;-70
2021/09/08 06:04:06;;;;;;;11.60;8.10;;;17.70;99.20;;;;;;4985206;28;20233;-70
2021/09/08 06:06:32;;;;;;;12.03;8.67;;;17.70;99.40;;;;;;5003167;28;20317;-70
2021/09/08 06:08:58;;;;;;;12.60;8.87;;;17.70;99.30;;;;;;4982198;28;20574;-70
2021/09/08 06:11:23;;;;;;;12.40;8.83;;;17.80;99.50;;;;;;5006287;28;20217;-69
2021/09/08 06:13:49;;;;;;;11.10;8.70;;;17.80;99.50;;;;;;4991520;28;20718;-69
2021/09/08 06:16:15;;;;;;;12.83;8.60;;;17.80;99.60;;;;;;5003044;28;20236;-69
2021/09/08 06:18:41;;;;;;;12.90;8.33;;;17.80;99.60;;;;;;4991931;28;20540;-69
2021/09/08 06:21:06;;;;;;;11.03;8.17;;;17.80;99.60;;;;;;4989458;28;20717;-69
2021/09/08 06:23:32;;;;;;;12.43;8.80;;;17.80;99.60;;;;;;4998738;28;20226;-70
2021/09/08 06:25:58;;;;;;;17.37;9.50;;;17.80;99.60;;;;;;4989314;28;20695;-70
2021/09/08 06:28:23;;;;;;;12.53;9.23;;;17.80;99.60;;;;;;4991357;28;20217;-69
2021/09/08 06:30:50;;;;;;;14.30;9.03;;;17.90;99.80;;;;;;5007756;28;20221;-69
2021/09/08 06:33:16;;;;;;;12.57;8.77;;;17.90;99.90;;;;;;4987482;28;20218;-70
2021/09/08 06:35:42;;;;;;;11.53;8.40;;;17.90;99.90;;;;;;5007500;28;20463;-70
2021/09/08 06:38:07;;;;;;;10.43;8.30;;;17.90;99.90;;;;;;5013044;28;20213;-70
2021/09/08 06:40:33;;;;;;;13.80;9.43;;;18.00;99.90;;;;;;4991659;28;20217;-70
2021/09/08 06:42:59;;;;;;;10.27;8.10;;;18.00;99.90;;;;;;5004302;28;20225;-70
2021/09/08 06:45:26;;;;;;;11.93;8.70;;;18.00;99.90;;;;;;4991314;28;20715;-69
2021/09/08 06:47:51;;;;;;;13.03;9.13;;;18.10;99.90;;;;;;5006712;28;20534;-69
2021/09/08 06:50:17;;;;;;;11.83;8.97;;;18.10;99.90;;;;;;5003241;28;20890;-69
2021/09/08 06:52:43;;;;;;;12.40;8.70;;;18.20;99.90;;;;;;4990011;28;20229;-69
2021/09/08 06:55:09;;;;;;;11.80;9.50;;;18.20;99.90;;;;;;5001231;28;20222;-70
2021/09/08 06:57:34;;;;;;;11.00;8.40;;;18.30;99.90;;;;;;4991061;28;20287;-70
2021/09/08 07:00:00;;;;;;;14.47;9.50;;;18.30;99.90;;;;;;4989488;28;20283;-70
2021/09/08 07:02:26;;;;;;;14.20;9.47;;;18.40;99.90;;;;;;4998393;28;20236;-70
2021/09/08 07:04:52;;;;;;;13.43;8.60;;;18.40;99.90;;;;;;4991039;28;20241;-69
2021/09/08 07:07:20;;;;;;;11.60;9.10;;;18.50;99.90;;;;;;4988816;28;20233;-70
2021/09/08 07:09:46;;;;;;;13.37;9.10;;;18.60;99.90;;;;;;4990315;28;20982;-70
2021/09/08 07:12:12;;;;;;;12.37;9.13;;;18.60;99.90;;;;;;4988358;28;20496;-70
2021/09/08 07:14:37;;;;;;;13.20;9.00;;;18.60;99.90;;;;;;5006368;28;20491;-70
2021/09/08 07:17:03;;;;;;;15.20;8.97;;;18.60;99.90;;;;;;4988739;28;20220;-70
2021/09/08 07:19:29;;;;;;;15.20;9.20;;;18.70;99.90;;;;;;5007311;28;20751;-70
2021/09/08 07:21:55;;;;;;;14.97;8.93;;;18.70;99.90;;;;;;5010110;28;20574;-70
2021/09/08 07:24:21;;;;;;;12.90;8.80;;;18.90;99.90;;;;;;4991490;28;20249;-70
2021/09/08 07:26:47;;;;;;;14.57;9.10;;;19.00;99.90;;;;;;4990440;28;20235;-69
2021/09/08 07:29:12;;;;;;;14.00;10.23;;;19.10;99.90;;;;;;5003666;28;20225;-70
2021/09/08 07:31:38;;;;;;;14.50;9.50;;;19.10;99.90;;;;;;5007140;28;20290;-69
2021/09/08 07:34:04;;;;;;;16.93;10.63;;;19.20;99.90;;;;;;4988308;28;20236;-70
2021/09/08 07:36:30;;;;;;;16.30;9.33;;;19.20;99.90;;;;;;4988087;28;20237;-70
2021/09/08 07:38:55;;;;;;;13.00;10.60;;;19.30;99.90;;;;;;4983884;28;20609;-69
2021/09/08 07:41:21;;;;;;;13.63;10.50;;;19.30;99.90;;;;;;4995649;28;20276;-70
2021/09/08 07:43:48;;;;;;;12.53;8.83;;;19.40;99.90;;;;;;5007589;28;20232;-69
2021/09/08 07:46:15;;;;;;;12.20;9.47;;;19.50;99.90;;;;;;4988578;28;20464;-70
2021/09/08 07:48:41;;;;;;;14.40;10.67;;;19.60;99.90;;;;;;5006302;28;20542;-70
2021/09/08 07:51:07;;;;;;;15.67;10.60;;;19.60;99.90;;;;;;4993779;28;20973;-70
2021/09/08 07:53:34;;;;;;;15.77;10.47;;;19.60;99.90;;;;;;4989869;28;20468;-70
2021/09/08 07:56:00;;;;;;;13.50;9.80;;;19.70;99.90;;;;;;5004764;28;20209;-70
2021/09/08 07:58:25;;;;;;;14.03;10.57;;;19.70;99.90;;;;;;4989895;28;20562;-70
2021/09/08 08:00:51;;;;;;;12.27;9.63;;;19.80;99.90;;;;;;5005397;28;20217;-70
2021/09/08 08:03:20;;;;;;;15.70;10.37;;;19.90;99.90;;;;;;4987747;28;20229;-70
2021/09/08 08:05:45;;;;;;;11.70;8.90;;;20.00;99.90;;;;;;5014898;28;20699;-70
2021/09/08 08:08:11;;;;;;;12.07;8.97;;;20.10;99.90;;;;;;4985888;28;20479;-69
2021/09/08 08:10:37;;;;;;;21.30;10.70;;;20.20;99.90;;;;;;4989075;28;20221;-69
2021/09/08 08:13:03;;;;;;;13.17;9.67;;;20.20;99.90;;;;;;5002870;28;20309;-70
2021/09/08 08:15:29;;;;;;;21.27;10.43;;;20.20;99.90;;;;;;5003651;28;20225;-70
2021/09/08 08:17:54;;;;;;;13.97;10.03;;;20.30;99.90;;;;;;4987320;28;20464;-70
2021/09/08 08:20:21;;;;;;;14.30;10.80;;;20.30;99.90;;;;;;5004332;28;20221;-70
2021/09/08 08:22:47;;;;;;;12.60;8.80;;;20.30;99.90;;;;;;4989339;28;20308;-69
2021/09/08 08:25:16;;;;;;;15.73;11.00;;;20.50;99.90;;;;;;5022638;28;20467;-70
2021/09/08 08:27:42;;;;;;;11.13;9.70;;;20.50;99.90;;;;;;4989122;28;20483;-70
2021/09/08 08:30:10;;;;;;;12.40;9.57;;;20.60;99.90;;;;;;5003146;28;20463;-71
2021/09/08 08:32:36;;;;;;;12.80;9.07;;;20.70;99.90;;;;;;5005409;28;20452;-70
2021/09/08 08:35:03;;;;;;;14.63;11.33;;;20.80;99.90;;;;;;5003965;28;21137;-70
2021/09/08 08:37:29;;;;;;;13.33;10.80;;;20.90;99.90;;;;;;5000749;28;20225;-70
2021/09/08 08:39:55;;;;;;;11.63;9.13;;;21.00;99.90;;;;;;5003308;28;20459;-70
2021/09/08 08:42:27;;;;;;;12.33;9.77;;;21.00;99.90;;;;;;5005282;28;20468;-70
2021/09/08 08:44:54;;;;;;;13.17;10.30;;;21.20;99.90;;;;;;5001667;28;20461;-70
2021/09/08 08:47:20;;;;;;;12.20;9.07;;;21.30;99.90;;;;;;5004041;28;20475;-71
2021/09/08 08:49:48;;;;;;;14.93;10.27;;;21.30;99.90;;;;;;4997131;28;20488;-70
2021/09/08 08:52:15;;;;;;;15.60;10.33;;;21.40;99.90;;;;;;5001444;28;20527;-70
2021/09/08 08:54:41;;;;;;;13.13;10.10;;;21.50;99.90;;;;;;5003561;28;20913;-70
2021/09/08 08:57:12;;;;;;;14.30;10.03;;;21.60;99.90;;;;;;5001466;28;20467;-71
2021/09/08 08:59:40;;;;;;;15.43;10.33;;;21.60;99.90;;;;;;5005292;28;20460;-70
2021/09/08 09:02:24;;;;;;;12.10;10.33;;;21.60;99.90;;;;;;4986912;28;20522;-70
2021/09/08 09:04:54;;;;;;;13.53;9.33;;;21.70;99.90;;;;;;4980418;28;20499;-70
2021/09/08 09:07:42;;;;;;;16.50;10.47;;;21.80;99.90;;;;;;4988160;28;20472;-70
2021/09/08 09:10:13;;;;;;;11.60;10.40;;;21.90;99.90;;;;;;4987765;28;20468;-70
2021/09/08 09:12:42;;;;;;;9.87;8.60;;;22.00;99.90;;;;;;4988338;28;20491;-70
2021/09/08 09:15:17;;;;;;;11.33;8.63;;;22.10;99.90;;;;;;4987081;28;20460;-71
2021/09/08 09:17:44;;;;;;;10.27;8.70;;;22.20;99.90;;;;;;5005279;28;20482;-70
2021/09/08 09:20:10;;;;;;;15.47;9.80;;;22.30;99.90;;;;;;4986864;28;20463;-70
2021/09/08 09:22:51;;;;;;;11.50;9.50;;;22.20;99.90;;;;;;5002512;28;20847;-70
2021/09/08 09:25:20;;;;;;;10.97;8.47;;;22.40;99.90;;;;;;4986501;28;20310;-70
2021/09/08 09:27:47;;;;;;;12.70;9.83;;;22.50;99.90;;;;;;5004008;28;20491;-70
2021/09/08 09:30:16;;;;;;;12.33;9.77;;;22.60;99.90;;;;;;5001337;28;20468;-70
2021/09/08 09:32:46;;;;;;;11.77;8.70;;;22.70;99.90;;;;;;4985666;28;20466;-70
2021/09/08 09:35:14;;;;;;;9.73;8.73;;;22.80;99.90;;;;;;4999360;28;20456;-70
2021/09/08 09:37:51;;;;;;;9.60;8.70;;;22.80;99.90;;;;;;4993635;28;20463;-70
2021/09/08 09:40:24;;;;;;;9.47;8.53;;;22.90;99.90;;;;;;5000833;28;20454;-70
2021/09/08 09:42:49;;;;;;;10.47;8.80;;;22.90;99.90;;;;;;4988190;28;20483;-70
2021/09/08 09:45:16;;;;;;;11.27;8.47;;;23.00;99.80;;;;;;4999784;28;20460;-70
2021/09/08 09:47:46;;;;;;;10.20;8.93;;;23.20;99.70;;;;;;4999203;28;20617;-70
2021/09/08 09:50:17;;;;;;;11.47;8.87;;;23.30;99.60;;;;;;4996248;28;21008;-70
2021/09/08 09:52:48;;;;;;;10.40;8.57;;;23.30;99.10;;;;;;4985903;28;20515;-70
2021/09/08 09:55:14;;;;;;;11.23;9.43;;;23.20;98.70;;;;;;4987615;28;22006;-70
2021/09/08 09:57:41;;;;;;;12.43;9.23;;;23.20;98.80;;;;;;4986909;28;20468;-70
2021/09/08 10:00:07;;;;;;;9.67;8.43;;;23.30;98.70;;;;;;4979038;28;20468;-69
2021/09/08 10:02:38;;;;;;;11.70;9.17;;;23.30;98.70;;;;;;5001323;28;20570;-70
2021/09/08 10:05:05;;;;;;;9.47;8.23;;;23.30;98.60;;;;;;4980936;28;20492;-70
2021/09/08 10:07:30;;;;;;;9.70;8.30;;;23.40;98.40;;;;;;5001607;28;20475;-70
2021/09/08 10:10:04;;;;;;;9.80;7.97;;;23.50;98.50;;;;;;5000425;28;20479;-69
2021/09/08 10:12:39;;;;;;;11.20;9.30;;;23.70;98.20;;;;;;4985451;28;20221;-70
2021/09/08 10:15:07;;;;;;;10.00;8.97;;;23.80;98.10;;;;;;5000416;28;20469;-70
2021/09/08 10:17:45;;;;;;;10.07;9.00;;;23.80;97.70;;;;;;5004167;28;20479;-70
2021/09/08 10:20:19;;;;;;;9.50;8.50;;;23.80;97.60;;;;;;5010550;28;20469;-69
2021/09/08 10:22:46;;;;;;;10.03;8.67;;;23.80;97.10;;;;;;4986619;28;20504;-69
2021/09/08 10:25:17;;;;;;;10.70;9.47;;;23.90;97.20;;;;;;5005565;28;20850;-70
2021/09/08 10:27:43;;;;;;;10.23;8.80;;;23.90;97.00;;;;;;5006117;28;20989;-70
2021/09/08 10:30:11;;;;;;;9.70;8.70;;;24.00;97.10;;;;;;4986405;28;20578;-70
2021/09/08 10:32:38;;;;;;;8.90;8.00;;;24.10;96.40;;;;;;4988291;28;20297;-70
2021/09/08 10:35:12;;;;;;;11.50;8.03;;;24.10;96.80;;;;;;5002883;28;20456;-70
2021/09/08 10:37:39;;;;;;;13.13;8.17;;;24.10;96.50;;;;;;5016300;28;20547;-71
2021/09/08 10:40:08;;;;;;;10.07;8.77;;;24.30;96.90;;;;;;4998152;28;20467;-71
2021/09/08 10:42:55;;;;;;;11.50;9.80;;;24.40;96.60;;;;;;4990896;28;20468;-71
2021/09/08 10:45:28;;;;;;;9.60;7.37;;;24.30;96.50;;;;;;4989459;28;20529;-70
2021/09/08 10:47:56;;;;;;;10.70;9.13;;;24.40;96.50;;;;;;5004718;28;20475;-70
2021/09/08 10:50:48;;;;;;;9.90;8.80;;;24.60;96.70;;;;;;4989889;28;20558;-71
2021/09/08 10:53:20;;;;;;;9.33;8.40;;;24.80;96.60;;;;;;4999611;28;20455;-70
2021/09/08 10:55:50;;;;;;;10.27;8.10;;;24.80;96.40;;;;;;5012832;28;20477;-71
2021/09/08 10:58:16;;;;;;;13.17;9.63;;;24.80;96.40;;;;;;4992819;28;20469;-71
2021/09/08 11:00:44;;;;;;;12.13;10.23;;;24.90;96.60;;;;;;5006754;28;20521;-70
2021/09/08 11:03:15;;;;;;;10.20;9.20;;;25.00;96.50;;;;;;5001387;28;20259;-70
2021/09/08 11:05:52;;;;;;;10.40;8.73;;;25.10;96.70;;;;;;5006385;28;20563;-70
2021/09/08 11:08:29;;;;;;;12.07;9.43;;;25.30;96.90;;;;;;4989023;28;20989;-70
2021/09/08 11:11:31;;;;;;;12.00;9.60;;;25.60;96.30;;;;;;4990845;28;20463;-70
2021/09/08 11:13:56;;;;;;;11.83;10.10;;;25.80;96.20;;;;;;4924406;29;20466;-71
2021/09/08 11:16:31;;;;;;;13.87;10.10;;;25.80;95.70;;;;;;4969537;28;20463;-70
2021/09/08 11:18:59;;;;;;;9.90;8.90;;;25.60;95.60;;;;;;5004106;28;20216;-70
2021/09/08 11:21:27;;;;;;;10.40;9.03;;;25.60;95.60;;;;;;4989231;28;20907;-70
2021/09/08 11:23:57;;;;;;;9.50;8.50;;;25.70;95.70;;;;;;4992439;28;20466;-70
2021/09/08 11:26:26;;;;;;;11.20;9.60;;;25.80;96.00;;;;;;5003002;28;20981;-70
2021/09/08 11:28:57;;;;;;;10.20;9.20;;;25.90;95.80;;;;;;4987201;28;20464;-70
2021/09/08 11:31:23;;;;;;;9.90;9.00;;;25.90;95.50;;;;;;4979244;28;20835;-70
2021/09/08 11:33:49;;;;;;;10.87;9.77;;;26.00;95.40;;;;;;4987925;28;20464;-70
2021/09/08 11:36:19;;;;;;;9.50;8.60;;;26.00;95.50;;;;;;5004270;28;20216;-70
2021/09/08 11:38:47;;;;;;;11.50;10.30;;;26.00;95.50;;;;;;5012853;28;20228;-71
2021/09/08 11:41:15;;;;;;;9.10;8.23;;;26.10;95.50;;;;;;5001079;28;20977;-71
2021/09/08 11:43:52;;;;;;;10.33;9.23;;;26.20;95.20;;;;;;4985438;28;20475;-70
2021/09/08 11:46:21;;;;;;;10.40;9.37;;;26.00;95.00;;;;;;4983018;28;20447;-70
2021/09/08 11:48:52;;;;;;;10.77;9.27;;;26.00;95.00;;;;;;4986997;28;20555;-71
2021/09/08 11:51:25;;;;;;;11.13;9.23;;;26.10;95.30;;;;;;4999633;28;21073;-71
2021/09/08 11:53:52;;;;;;;10.20;8.97;;;26.10;95.40;;;;;;4977988;28;20459;-71
2021/09/08 11:56:21;;;;;;;10.47;9.10;;;26.10;95.00;;;;;;4982340;28;20461;-71
2021/09/08 11:58:58;;;;;;;10.70;9.73;;;26.20;95.40;;;;;;4975012;28;20467;-70
2021/09/08 12:01:24;;;;;;;11.43;9.70;;;26.30;95.10;;;;;;5008811;28;21023;-69
2021/09/08 12:03:58;;;;;;;9.87;8.77;;;26.30;95.00;;;;;;4985936;28;20463;-70
2021/09/08 12:06:32;;;;;;;10.30;9.13;;;26.20;95.00;;;;;;4985023;28;20532;-70
2021/09/08 12:09:12;;;;;;;9.60;8.70;;;26.30;95.10;;;;;;4996244;28;20980;-70
2021/09/08 12:11:45;;;;;;;11.93;9.23;;;26.40;94.90;;;;;;4983416;28;20460;-71
2021/09/08 12:14:24;;;;;;;9.60;8.50;;;26.40;94.50;;;;;;4977805;28;20494;-70
2021/09/08 12:16:55;;;;;;;9.03;7.93;;;26.40;94.40;;;;;;4995900;28;20521;-69
2021/09/08 12:19:35;;;;;;;12.07;10.37;;;26.50;94.30;;;;;;5003640;28;20459;-71
2021/09/08 12:22:05;;;;;;;8.53;7.73;;;26.60;93.90;;;;;;4979737;28;20710;-70
2021/09/08 12:24:34;;;;;;;9.73;8.70;;;26.50;93.80;;;;;;5002984;28;20987;-70
2021/09/08 12:26:59;;;;;;;10.10;8.40;;;26.50;94.10;;;;;;4983141;28;20526;-71
2021/09/08 12:29:26;;;;;;;10.70;8.70;;;26.60;94.30;;;;;;4984184;28;20453;-71
2021/09/08 12:31:57;;;;;;;8.90;7.80;;;26.70;93.80;;;;;;4984939;28;20217;-71
2021/09/08 12:34:24;;;;;;;8.93;8.03;;;26.70;93.60;;;;;;4998029;28;20464;-70
2021/09/08 12:36:51;;;;;;;9.20;8.30;;;26.60;93.30;;;;;;4990946;28;20909;-70
2021/09/08 12:39:19;;;;;;;10.07;8.20;;;26.60;93.30;;;;;;5004260;28;20455;-71